createdAt,value
2023-03-03T00:01:05.060Z,99.90
2023-03-03T00:03:33.512Z,99.90
2023-03-03T00:06:01.362Z,99.90
2023-03-03T00:08:29.249Z,99.90
2023-03-03T00:10:57.014Z,99.90
2023-03-03T00:13:27.788Z,99.90
2023-03-03T00:16:13.665Z,99.90
2023-03-03T00:18:44.150Z,99.90
2023-03-03T00:21:29.303Z,99.90
2023-03-03T00:24:11.932Z,99.90
2023-03-03T00:26:41.809Z,99.90
2023-03-03T00:29:30.788Z,99.90
2023-03-03T00:32:17.083Z,99.90
2023-03-03T00:34:45.577Z,99.90
2023-03-03T00:37:28.561Z,99.90
2023-03-03T00:40:03.818Z,99.90
2023-03-03T00:42:36.664Z,99.90
2023-03-03T00:45:23.462Z,99.90
2023-03-03T00:47:52.619Z,99.90
2023-03-03T00:50:32.401Z,99.90
2023-03-03T00:53:06.318Z,99.90
2023-03-03T00:55:35.556Z,99.90
2023-03-03T00:58:03.789Z,99.90
2023-03-03T01:00:33.945Z,99.90
2023-03-03T01:03:05.771Z,99.90
2023-03-03T01:05:33.844Z,99.90
2023-03-03T01:08:02.173Z,99.90
2023-03-03T01:10:33.239Z,99.90
2023-03-03T01:13:01.187Z,99.90
2023-03-03T01:15:29.210Z,99.90
2023-03-03T01:17:57.332Z,99.90
2023-03-03T01:20:26.730Z,99.90
2023-03-03T01:22:54.557Z,99.90
2023-03-03T01:25:22.544Z,99.90
2023-03-03T01:27:50.342Z,99.90
2023-03-03T01:30:18.223Z,99.90
2023-03-03T01:32:46.027Z,99.90
2023-03-03T01:35:13.816Z,99.90
2023-03-03T01:37:43.172Z,99.90
2023-03-03T01:40:16.056Z,99.90
2023-03-03T01:42:43.947Z,99.90
2023-03-03T01:45:16.916Z,99.90
2023-03-03T01:47:47.873Z,99.90
2023-03-03T01:50:18.832Z,99.90
2023-03-03T01:52:48.329Z,99.90
2023-03-03T01:55:21.814Z,99.90
2023-03-03T01:57:55.359Z,99.90
2023-03-03T02:00:23.493Z,99.90
2023-03-03T02:02:52.441Z,99.90
2023-03-03T02:05:20.646Z,99.90
2023-03-03T02:07:49.892Z,99.90
2023-03-03T02:10:19.574Z,99.90
2023-03-03T02:12:50.840Z,99.90
2023-03-03T02:15:23.737Z,99.90
2023-03-03T02:17:55.038Z,99.90
2023-03-03T02:20:36.315Z,99.90
2023-03-03T02:23:12.311Z,99.90
2023-03-03T02:25:48.390Z,99.90
2023-03-03T02:28:17.637Z,99.90
2023-03-03T02:30:51.031Z,99.90
2023-03-03T02:33:18.906Z,99.90
2023-03-03T02:35:46.789Z,99.90
2023-03-03T02:38:22.101Z,99.90
2023-03-03T02:41:00.188Z,99.90
2023-03-03T02:43:36.563Z,99.90
2023-03-03T02:46:04.460Z,99.90
2023-03-03T02:48:32.602Z,99.90
2023-03-03T02:51:00.677Z,99.90
2023-03-03T02:53:28.458Z,99.90
2023-03-03T02:55:56.260Z,99.90
2023-03-03T02:58:24.094Z,99.90
2023-03-03T03:00:53.303Z,99.90
2023-03-03T03:03:21.150Z,99.90
2023-03-03T03:05:48.987Z,99.90
2023-03-03T03:08:16.771Z,99.90
2023-03-03T03:10:44.755Z,99.90
2023-03-03T03:13:12.872Z,99.90
2023-03-03T03:15:40.661Z,99.90
2023-03-03T03:18:09.832Z,99.90
2023-03-03T03:20:40.015Z,99.90
2023-03-03T03:23:08.366Z,99.90
2023-03-03T03:25:37.933Z,99.90
2023-03-03T03:28:05.979Z,99.90
2023-03-03T03:30:33.793Z,99.90
2023-03-03T03:33:01.610Z,99.90
2023-03-03T03:35:30.836Z,99.90
2023-03-03T03:37:58.603Z,99.90
2023-03-03T03:40:26.703Z,99.90
2023-03-03T03:42:54.890Z,99.90
2023-03-03T03:45:22.901Z,99.90
2023-03-03T03:47:50.712Z,99.90
2023-03-03T03:50:18.693Z,99.90
2023-03-03T03:52:48.744Z,99.90
2023-03-03T03:55:16.677Z,99.90
2023-03-03T03:57:44.635Z,99.90
2023-03-03T04:00:13.508Z,99.90
2023-03-03T04:02:41.373Z,99.90
2023-03-03T04:05:09.999Z,99.90
2023-03-03T04:07:37.777Z,99.90
2023-03-03T04:10:08.175Z,99.90
2023-03-03T04:12:38.609Z,99.90
2023-03-03T04:15:08.453Z,99.90
2023-03-03T04:17:36.526Z,99.90
2023-03-03T04:20:05.944Z,99.90
2023-03-03T04:22:35.912Z,99.90
2023-03-03T04:25:06.008Z,99.90
2023-03-03T04:27:33.942Z,99.90
2023-03-03T04:30:02.226Z,99.90
2023-03-03T04:32:30.381Z,99.90
2023-03-03T04:35:07.218Z,99.90
2023-03-03T04:37:36.614Z,99.90
2023-03-03T04:40:07.753Z,99.90
2023-03-03T04:42:35.824Z,99.90
2023-03-03T04:45:03.807Z,99.90
2023-03-03T04:47:32.304Z,99.90
2023-03-03T04:50:00.765Z,99.90
2023-03-03T04:52:28.638Z,99.90
2023-03-03T04:54:56.492Z,99.90
2023-03-03T04:57:25.661Z,99.90
2023-03-03T04:59:53.692Z,99.90
2023-03-03T05:02:21.521Z,99.90
2023-03-03T05:04:49.365Z,99.90
2023-03-03T05:07:17.647Z,99.90
2023-03-03T05:09:45.440Z,99.90
2023-03-03T05:12:13.239Z,99.90
2023-03-03T05:14:42.564Z,99.90
2023-03-03T05:17:10.427Z,99.90
2023-03-03T05:19:38.235Z,99.90
2023-03-03T05:22:06.592Z,99.90
2023-03-03T05:24:34.407Z,99.90
2023-03-03T05:27:03.338Z,99.90
2023-03-03T05:29:31.867Z,99.90
2023-03-03T05:32:01.060Z,99.90
2023-03-03T05:34:28.867Z,99.90
2023-03-03T05:36:56.678Z,99.90
2023-03-03T05:39:24.640Z,99.90
2023-03-03T05:41:52.403Z,99.90
2023-03-03T05:44:20.777Z,99.90
2023-03-03T05:46:48.656Z,99.90
2023-03-03T05:49:17.868Z,99.90
2023-03-03T05:51:45.705Z,99.90
2023-03-03T05:54:13.663Z,99.90
2023-03-03T05:56:41.436Z,99.90
2023-03-03T05:59:09.230Z,99.90
2023-03-03T06:01:37.012Z,99.90
2023-03-03T06:04:04.881Z,99.90
2023-03-03T06:06:34.286Z,99.90
2023-03-03T06:09:02.071Z,99.90
2023-03-03T06:11:29.850Z,99.90
2023-03-03T06:13:57.694Z,99.90
2023-03-03T06:16:25.604Z,99.90
2023-03-03T06:18:53.498Z,99.90
2023-03-03T06:21:21.315Z,99.90
2023-03-03T06:23:50.690Z,99.90
2023-03-03T06:26:18.492Z,99.90
2023-03-03T06:28:46.713Z,99.90
2023-03-03T06:31:14.545Z,99.90
2023-03-03T06:33:42.642Z,99.90
2023-03-03T06:36:11.029Z,99.90
2023-03-03T06:38:38.854Z,99.90
2023-03-03T06:41:08.459Z,99.90
2023-03-03T06:43:36.266Z,99.90
2023-03-03T06:46:04.340Z,99.90
2023-03-03T06:48:33.300Z,99.90
2023-03-03T06:51:03.559Z,99.90
2023-03-03T06:53:34.816Z,99.90
2023-03-03T06:56:03.323Z,99.90
2023-03-03T06:58:33.409Z,99.90
2023-03-03T07:01:02.518Z,99.90
2023-03-03T07:03:34.871Z,99.90
2023-03-03T07:06:05.869Z,99.90
2023-03-03T07:08:33.980Z,99.90
2023-03-03T07:11:09.637Z,99.90
2023-03-03T07:13:47.095Z,99.90
2023-03-03T07:16:16.517Z,99.90
2023-03-03T07:18:50.913Z,99.90
2023-03-03T07:21:20.418Z,99.90
2023-03-03T07:23:50.668Z,99.90
2023-03-03T07:26:22.605Z,99.90
2023-03-03T07:28:55.252Z,99.90
2023-03-03T07:31:32.657Z,99.90
2023-03-03T07:34:01.735Z,99.90
2023-03-03T07:36:32.615Z,99.90
2023-03-03T07:39:03.158Z,99.90
2023-03-03T07:41:33.603Z,99.90
2023-03-03T07:44:06.542Z,99.90
2023-03-03T07:46:42.639Z,99.90
2023-03-03T07:49:22.522Z,99.90
2023-03-03T07:51:54.940Z,99.90
2023-03-03T07:54:31.059Z,99.90
2023-03-03T07:57:03.138Z,99.90
2023-03-03T07:59:37.923Z,99.90
2023-03-03T08:02:43.509Z,99.90
2023-03-03T08:05:28.866Z,99.90
2023-03-03T08:08:03.770Z,99.90
2023-03-03T08:10:37.770Z,99.90
2023-03-03T08:13:18.728Z,99.90
2023-03-03T08:15:50.579Z,99.90
2023-03-03T08:18:26.243Z,99.90
2023-03-03T08:20:57.181Z,99.90
2023-03-03T08:23:24.974Z,99.90
2023-03-03T08:25:53.637Z,99.90
2023-03-03T08:28:22.584Z,99.90
2023-03-03T08:31:02.659Z,99.90
2023-03-03T08:33:37.178Z,99.90
2023-03-03T08:36:05.558Z,99.90
2023-03-03T08:38:33.451Z,99.90
2023-03-03T08:41:01.345Z,99.90
2023-03-03T08:43:29.645Z,99.90
2023-03-03T08:46:01.254Z,99.90
2023-03-03T08:48:30.250Z,99.90
2023-03-03T08:50:58.277Z,99.90
2023-03-03T08:53:26.194Z,99.90
2023-03-03T08:55:53.992Z,99.90
2023-03-03T08:58:33.449Z,99.90
2023-03-03T09:01:04.899Z,99.90
2023-03-03T09:03:32.785Z,99.90
2023-03-03T09:06:00.609Z,99.90
2023-03-03T09:08:28.442Z,99.90
2023-03-03T09:10:56.224Z,99.90
2023-03-03T09:13:24.001Z,99.90
2023-03-03T09:15:52.155Z,99.90
2023-03-03T09:18:23.369Z,99.90
2023-03-03T09:20:52.690Z,99.90
2023-03-03T09:23:38.741Z,99.90
2023-03-03T09:26:28.474Z,99.90
2023-03-03T09:28:59.376Z,99.90
2023-03-03T09:31:28.863Z,99.90
2023-03-03T09:33:59.416Z,99.90
2023-03-03T09:36:29.907Z,99.90
2023-03-03T09:38:59.025Z,99.90
2023-03-03T09:41:45.713Z,99.90
2023-03-03T09:44:57.519Z,99.90
2023-03-03T09:47:50.803Z,99.90
2023-03-03T09:50:29.837Z,99.90
2023-03-03T09:53:10.973Z,99.90
2023-03-03T09:55:46.017Z,99.90
2023-03-03T09:58:37.398Z,99.90
2023-03-03T10:01:31.142Z,99.90
2023-03-03T10:04:36.396Z,99.90
2023-03-03T10:07:26.918Z,99.90
2023-03-03T10:10:15.692Z,99.90
2023-03-03T10:12:53.724Z,99.90
2023-03-03T10:15:40.468Z,99.90
2023-03-03T10:18:19.369Z,99.90
2023-03-03T10:20:58.747Z,99.90
2023-03-03T10:23:49.704Z,99.90
2023-03-03T10:26:41.985Z,99.90
2023-03-03T10:29:34.012Z,99.90
2023-03-03T10:32:38.189Z,99.90
2023-03-03T10:35:33.060Z,99.90
2023-03-03T10:38:18.871Z,99.90
2023-03-03T10:40:54.348Z,99.90
2023-03-03T10:43:41.998Z,99.90
2023-03-03T10:46:27.830Z,99.90
2023-03-03T10:49:16.252Z,99.90
2023-03-03T10:51:55.812Z,99.90
2023-03-03T10:54:34.685Z,99.90
2023-03-03T10:57:11.333Z,99.90
2023-03-03T10:59:52.511Z,99.90
2023-03-03T11:02:26.117Z,99.90
2023-03-03T11:05:17.477Z,99.90
2023-03-03T11:07:49.780Z,99.90
2023-03-03T11:10:29.392Z,99.90
2023-03-03T11:13:11.230Z,99.90
2023-03-03T11:15:51.772Z,99.90
2023-03-03T11:18:44.033Z,99.90
2023-03-03T11:21:18.846Z,99.90
2023-03-03T11:24:20.392Z,99.90
2023-03-03T11:27:22.071Z,99.90
2023-03-03T11:30:26.708Z,99.90
2023-03-03T11:33:04.685Z,99.90
2023-03-03T11:35:38.931Z,99.90
2023-03-03T11:38:21.450Z,99.80
2023-03-03T11:40:52.686Z,99.90
2023-03-03T11:43:36.595Z,99.90
2023-03-03T11:46:09.911Z,99.80
2023-03-03T11:48:44.760Z,99.70
2023-03-03T11:51:16.848Z,99.60
2023-03-03T11:54:03.809Z,98.90
2023-03-03T11:56:39.691Z,98.90
2023-03-03T11:59:21.330Z,98.50
2023-03-03T12:01:56.909Z,97.30
2023-03-03T12:04:32.721Z,97.00
2023-03-03T12:07:19.430Z,96.60
2023-03-03T12:10:03.134Z,96.30
2023-03-03T12:12:35.549Z,95.80
2023-03-03T12:15:15.619Z,95.50
2023-03-03T12:18:08.312Z,94.90
2023-03-03T12:20:46.968Z,94.40
2023-03-03T12:23:31.084Z,93.90
2023-03-03T12:26:04.554Z,93.90
2023-03-03T12:28:38.829Z,92.90
2023-03-03T12:31:24.983Z,93.30
2023-03-03T12:33:57.773Z,92.80
2023-03-03T12:36:40.150Z,92.30
2023-03-03T12:39:13.745Z,92.00
2023-03-03T12:41:49.149Z,90.70
2023-03-03T12:44:22.853Z,90.20
2023-03-03T12:46:59.138Z,90.00
2023-03-03T12:49:43.459Z,90.60
2023-03-03T12:52:27.724Z,90.20
2023-03-03T12:55:06.653Z,90.40
2023-03-03T12:57:41.382Z,90.40
2023-03-03T13:00:29.631Z,89.90
2023-03-03T13:03:08.990Z,89.30
2023-03-03T13:05:49.671Z,89.60
2023-03-03T13:08:32.747Z,89.70
2023-03-03T13:11:17.954Z,88.30
2023-03-03T13:13:51.726Z,89.00
2023-03-03T13:16:40.349Z,90.00
2023-03-03T13:19:12.585Z,89.60
2023-03-03T13:21:48.217Z,88.80
2023-03-03T13:24:22.289Z,88.50
2023-03-03T13:26:56.301Z,88.50
2023-03-03T13:29:29.182Z,88.00
2023-03-03T13:32:00.659Z,87.20
2023-03-03T13:34:40.555Z,86.70
2023-03-03T13:37:16.852Z,86.90
2023-03-03T13:39:57.138Z,85.90
2023-03-03T13:42:30.881Z,85.40
2023-03-03T13:44:59.793Z,84.60
2023-03-03T13:47:39.856Z,86.40
2023-03-03T13:50:23.370Z,86.60
2023-03-03T13:53:12.071Z,87.10
2023-03-03T13:55:44.645Z,87.60
2023-03-03T13:58:22.545Z,87.60
2023-03-03T14:01:01.357Z,86.30
2023-03-03T14:03:53.660Z,87.00
2023-03-03T14:06:24.149Z,87.30
2023-03-03T14:09:10.448Z,87.70
2023-03-03T14:11:46.854Z,88.60
2023-03-03T14:14:38.437Z,90.00
2023-03-03T14:17:13.702Z,89.90
2023-03-03T14:19:48.092Z,89.40
2023-03-03T14:22:23.945Z,89.20
2023-03-03T14:25:01.930Z,89.20
2023-03-03T14:27:36.832Z,87.90
2023-03-03T14:30:30.757Z,87.80
2023-03-03T14:33:04.721Z,88.40
2023-03-03T14:35:35.413Z,88.40
2023-03-03T14:38:04.427Z,87.60
2023-03-03T14:40:35.027Z,87.70
2023-03-03T14:43:07.931Z,87.80
2023-03-03T14:45:37.956Z,88.20
2023-03-03T14:48:16.439Z,89.70
2023-03-03T14:50:49.829Z,90.60
2023-03-03T14:53:23.938Z,91.50
2023-03-03T14:55:54.554Z,92.20
2023-03-03T14:58:29.150Z,93.30
2023-03-03T15:01:15.391Z,94.10
2023-03-03T15:03:49.261Z,94.40
2023-03-03T15:06:42.571Z,94.80
2023-03-03T15:09:38.412Z,95.10
2023-03-03T15:12:22.237Z,95.40
2023-03-03T15:14:51.603Z,96.40
2023-03-03T15:17:28.742Z,96.60
2023-03-03T15:20:14.678Z,96.40
2023-03-03T15:22:49.171Z,96.70
2023-03-03T15:25:34.782Z,97.20
2023-03-03T15:28:23.491Z,97.50
2023-03-03T15:30:58.397Z,97.70
2023-03-03T15:33:34.503Z,98.20
2023-03-03T15:36:08.884Z,98.70
2023-03-03T15:38:46.919Z,98.60
2023-03-03T15:41:26.656Z,99.30
2023-03-03T15:44:06.729Z,99.50
2023-03-03T15:46:53.037Z,99.40
2023-03-03T15:49:40.054Z,99.70
2023-03-03T15:52:23.700Z,99.50
2023-03-03T15:55:03.424Z,99.90
2023-03-03T15:57:41.175Z,99.90
2023-03-03T16:00:29.306Z,99.90
2023-03-03T16:03:00.613Z,99.90
2023-03-03T16:05:32.404Z,99.90
2023-03-03T16:08:05.858Z,99.90
2023-03-03T16:10:43.871Z,99.90
2023-03-03T16:13:23.724Z,99.90
2023-03-03T16:16:04.477Z,99.90
2023-03-03T16:18:48.050Z,99.90
2023-03-03T16:21:27.338Z,99.90
2023-03-03T16:23:59.508Z,99.90
2023-03-03T16:26:43.302Z,99.90
2023-03-03T16:29:36.345Z,99.90
2023-03-03T16:32:12.700Z,99.90
2023-03-03T16:34:47.061Z,99.90
2023-03-03T16:37:23.496Z,99.90
2023-03-03T16:39:56.517Z,99.90
2023-03-03T16:42:29.207Z,99.90
2023-03-03T16:45:07.364Z,99.90
2023-03-03T16:47:53.921Z,99.90
2023-03-03T16:50:29.365Z,99.90
2023-03-03T16:53:06.634Z,99.90
2023-03-03T16:55:39.614Z,99.90
2023-03-03T16:58:19.518Z,99.90
2023-03-03T17:00:56.067Z,99.90
2023-03-03T17:03:39.562Z,99.90
2023-03-03T17:06:13.079Z,99.90
2023-03-03T17:09:31.499Z,99.90
2023-03-03T17:12:19.603Z,99.90
2023-03-03T17:15:02.489Z,99.90
2023-03-03T17:17:40.473Z,99.90
2023-03-03T17:20:24.029Z,99.90
2023-03-03T17:23:06.258Z,99.90
2023-03-03T17:25:42.485Z,99.90
2023-03-03T17:28:24.964Z,99.90
2023-03-03T17:31:00.505Z,99.90
2023-03-03T17:33:40.873Z,99.90
2023-03-03T17:36:33.831Z,99.90
2023-03-03T17:39:13.258Z,99.90
2023-03-03T17:41:50.179Z,99.90
2023-03-03T17:44:24.786Z,99.90
2023-03-03T17:46:55.447Z,99.90
2023-03-03T17:49:47.105Z,99.90
2023-03-03T17:52:32.327Z,99.90
2023-03-03T17:55:24.638Z,99.90
2023-03-03T17:58:05.425Z,99.90
2023-03-03T18:00:44.702Z,99.90
2023-03-03T18:03:32.867Z,99.90
2023-03-03T18:06:24.986Z,99.90
2023-03-03T18:09:17.838Z,99.90
2023-03-03T18:12:01.038Z,99.90
2023-03-03T18:15:06.765Z,99.90
2023-03-03T18:17:37.339Z,99.90
2023-03-03T18:20:38.990Z,99.90
2023-03-03T18:23:30.737Z,99.90
2023-03-03T18:26:00.954Z,99.90
2023-03-03T18:28:45.140Z,99.90
2023-03-03T18:31:24.291Z,99.90
2023-03-03T18:34:10.262Z,99.90
2023-03-03T18:36:54.149Z,99.90
2023-03-03T18:39:38.880Z,99.90
2023-03-03T18:42:12.034Z,99.90
2023-03-03T18:44:40.076Z,99.90
2023-03-03T18:47:08.167Z,99.90
2023-03-03T18:50:04.182Z,99.90
2023-03-03T18:52:33.730Z,99.90
2023-03-03T18:55:27.070Z,99.90
2023-03-03T18:58:46.273Z,99.90
2023-03-03T19:01:37.809Z,99.90
2023-03-03T19:04:23.885Z,99.90
2023-03-03T19:07:26.363Z,99.90
2023-03-03T19:10:01.532Z,99.90
2023-03-03T19:12:51.559Z,99.90
2023-03-03T19:15:49.873Z,99.90
2023-03-03T19:18:23.869Z,99.90
2023-03-03T19:20:57.320Z,99.90
2023-03-03T19:23:34.842Z,99.90
2023-03-03T19:26:50.181Z,99.90
2023-03-03T19:29:43.162Z,99.90
2023-03-03T19:32:43.773Z,99.90
2023-03-03T19:35:23.774Z,99.90
2023-03-03T19:38:03.435Z,99.90
2023-03-03T19:40:38.266Z,99.90
2023-03-03T19:43:16.350Z,99.90
2023-03-03T19:46:00.144Z,99.90
2023-03-03T19:48:36.857Z,99.90
2023-03-03T19:51:15.867Z,99.90
2023-03-03T19:53:54.083Z,99.90
2023-03-03T19:56:31.325Z,99.90
2023-03-03T19:59:20.234Z,99.90
2023-03-03T20:01:59.649Z,99.90
2023-03-03T20:04:53.138Z,99.90
2023-03-03T20:07:31.209Z,99.90
2023-03-03T20:10:10.250Z,99.90
2023-03-03T20:12:53.247Z,99.90
2023-03-03T20:15:26.211Z,99.90
2023-03-03T20:18:03.596Z,99.90
2023-03-03T20:21:00.689Z,99.90
2023-03-03T20:23:33.776Z,99.90
2023-03-03T20:26:08.677Z,99.90
2023-03-03T20:29:13.904Z,99.90
2023-03-03T20:31:50.957Z,99.90
2023-03-03T20:34:27.570Z,99.90
2023-03-03T20:37:05.201Z,99.90
2023-03-03T20:39:44.528Z,99.90
2023-03-03T20:42:27.003Z,99.90
2023-03-03T20:45:06.052Z,99.90
2023-03-03T20:47:40.676Z,99.90
2023-03-03T20:50:22.645Z,99.90
2023-03-03T20:53:02.816Z,99.90
2023-03-03T20:55:40.537Z,99.90
2023-03-03T20:58:17.766Z,99.90
2023-03-03T21:00:53.591Z,99.90
2023-03-03T21:03:27.278Z,99.90
2023-03-03T21:05:58.871Z,99.90
2023-03-03T21:08:46.472Z,99.90
2023-03-03T21:11:15.727Z,99.90
2023-03-03T21:13:46.016Z,99.90
2023-03-03T21:16:30.168Z,99.90
2023-03-03T21:18:59.226Z,99.90
2023-03-03T21:21:30.275Z,99.90
2023-03-03T21:23:59.243Z,99.90
2023-03-03T21:26:49.208Z,99.90
2023-03-03T21:29:24.337Z,99.90
2023-03-03T21:31:53.858Z,99.90
2023-03-03T21:34:25.596Z,99.90
2023-03-03T21:36:54.235Z,99.90
2023-03-03T21:39:28.276Z,99.90
2023-03-03T21:41:58.585Z,99.90
2023-03-03T21:44:40.266Z,99.90
2023-03-03T21:47:10.004Z,99.90
2023-03-03T21:49:41.874Z,99.90
2023-03-03T21:52:09.976Z,99.90
2023-03-03T21:54:37.857Z,99.90
2023-03-03T21:57:05.868Z,99.90
2023-03-03T21:59:33.776Z,99.90
2023-03-03T22:02:02.906Z,99.90
2023-03-03T22:04:30.922Z,99.90
2023-03-03T22:06:58.921Z,99.90
2023-03-03T22:09:27.183Z,99.90
2023-03-03T22:11:55.047Z,99.90
2023-03-03T22:14:23.103Z,99.90
2023-03-03T22:16:50.904Z,99.90
2023-03-03T22:19:20.111Z,99.90
2023-03-03T22:21:48.101Z,99.90
2023-03-03T22:24:15.967Z,99.90
2023-03-03T22:26:43.946Z,99.90
2023-03-03T22:29:11.805Z,99.90
2023-03-03T22:31:39.777Z,99.90
2023-03-03T22:34:07.758Z,99.90
2023-03-03T22:36:36.945Z,99.90
2023-03-03T22:39:04.791Z,99.90
2023-03-03T22:41:32.738Z,99.90
2023-03-03T22:44:00.610Z,99.90
2023-03-03T22:46:28.424Z,99.90
2023-03-03T22:48:56.258Z,99.90
2023-03-03T22:51:24.082Z,99.90
2023-03-03T22:53:53.233Z,99.90
2023-03-03T22:56:21.060Z,99.90
2023-03-03T22:58:49.134Z,99.90
2023-03-03T23:01:16.957Z,99.90
2023-03-03T23:03:44.790Z,99.90
2023-03-03T23:06:12.629Z,99.90
2023-03-03T23:08:40.469Z,99.90
2023-03-03T23:11:09.638Z,99.90
2023-03-03T23:13:37.483Z,99.90
2023-03-03T23:16:06.049Z,99.90
2023-03-03T23:18:33.952Z,99.90
2023-03-03T23:21:01.809Z,99.90
2023-03-03T23:23:30.499Z,99.90
2023-03-03T23:25:58.311Z,99.90
2023-03-03T23:28:27.575Z,99.90
2023-03-03T23:30:55.375Z,99.90
2023-03-03T23:33:23.222Z,99.90
2023-03-03T23:35:51.109Z,99.90
2023-03-03T23:38:18.956Z,99.90
2023-03-03T23:40:47.568Z,99.90
2023-03-03T23:43:15.445Z,99.90
2023-03-03T23:45:44.591Z,99.90
2023-03-03T23:48:12.525Z,99.90
2023-03-03T23:50:40.353Z,99.90
2023-03-03T23:53:08.994Z,99.90
2023-03-03T23:55:37.507Z,99.90
2023-03-03T23:58:05.512Z,99.90
